sensor_id;sensor_type;location;lat;lon;timestamp;pressure;altitude;pressure_sealevel;temperature;humidity
51083;BME280;37131;42.694;23.350;2023-03-15T00:01:40;94527.28;;;5.50;46.55
51083;BME280;37131;42.694;23.350;2023-03-15T00:04:05;94529.66;;;5.52;46.82
51083;BME280;37131;42.694;23.350;2023-03-15T00:06:31;94524.66;;;5.57;46.29
51083;BME280;37131;42.694;23.350;2023-03-15T00:09:00;94520.66;;;5.61;47.10
51083;BME280;37131;42.694;23.350;2023-03-15T00:11:26;94516.69;;;5.58;47.20
51083;BME280;37131;42.694;23.350;2023-03-15T00:13:52;94510.72;;;5.58;46.94
51083;BME280;37131;42.694;23.350;2023-03-15T00:16:17;94519.81;;;5.67;45.16
51083;BME280;37131;42.694;23.350;2023-03-15T00:18:43;94518.69;;;5.82;44.76
51083;BME280;37131;42.694;23.350;2023-03-15T00:21:09;94519.00;;;5.67;46.72
51083;BME280;37131;42.694;23.350;2023-03-15T00:23:34;94515.78;;;5.71;46.23
51083;BME280;37131;42.694;23.350;2023-03-15T00:25:59;94516.19;;;5.68;47.79
51083;BME280;37131;42.694;23.350;2023-03-15T00:28:24;94518.31;;;5.53;47.85
51083;BME280;37131;42.694;23.350;2023-03-15T00:30:58;94526.91;;;5.47;48.33
51083;BME280;37131;42.694;23.350;2023-03-15T00:33:26;94514.41;;;5.43;47.58
51083;BME280;37131;42.694;23.350;2023-03-15T00:35:51;94512.78;;;5.17;47.81
51083;BME280;37131;42.694;23.350;2023-03-15T00:38:17;94504.72;;;5.00;48.45
51083;BME280;37131;42.694;23.350;2023-03-15T00:40:42;94508.94;;;5.26;47.36
51083;BME280;37131;42.694;23.350;2023-03-15T00:43:08;94502.59;;;4.90;48.57
51083;BME280;37131;42.694;23.350;2023-03-15T00:45:33;94504.22;;;4.78;48.76
51083;BME280;37131;42.694;23.350;2023-03-15T00:47:58;94506.16;;;4.89;48.03
51083;BME280;37131;42.694;23.350;2023-03-15T00:50:24;94504.44;;;4.77;48.42
51083;BME280;37131;42.694;23.350;2023-03-15T00:52:49;94512.38;;;4.82;48.71
51083;BME280;37131;42.694;23.350;2023-03-15T00:55:15;94500.66;;;4.79;48.98
51083;BME280;37131;42.694;23.350;2023-03-15T00:57:41;94489.56;;;4.72;49.09
51083;BME280;37131;42.694;23.350;2023-03-15T01:00:08;94487.34;;;4.82;50.33
51083;BME280;37131;42.694;23.350;2023-03-15T01:02:34;94484.47;;;4.97;48.54
51083;BME280;37131;42.694;23.350;2023-03-15T01:05:01;94484.44;;;5.04;47.86
51083;BME280;37131;42.694;23.350;2023-03-15T01:07:26;94481.81;;;5.10;47.49
51083;BME280;37131;42.694;23.350;2023-03-15T01:09:51;94472.94;;;5.00;49.35
51083;BME280;37131;42.694;23.350;2023-03-15T01:12:17;94477.72;;;4.96;47.48
51083;BME280;37131;42.694;23.350;2023-03-15T01:14:42;94469.91;;;5.09;47.42
51083;BME280;37131;42.694;23.350;2023-03-15T01:17:07;94473.28;;;5.10;47.55
51083;BME280;37131;42.694;23.350;2023-03-15T01:19:33;94470.91;;;5.08;47.71
51083;BME280;37131;42.694;23.350;2023-03-15T01:21:58;94470.84;;;4.83;47.89
51083;BME280;37131;42.694;23.350;2023-03-15T01:24:23;94471.75;;;4.96;47.15
51083;BME280;37131;42.694;23.350;2023-03-15T01:26:48;94461.41;;;5.02;48.10
51083;BME280;37131;42.694;23.350;2023-03-15T01:29:14;94455.13;;;4.85;48.93
51083;BME280;37131;42.694;23.350;2023-03-15T01:31:41;94461.78;;;4.67;49.40
51083;BME280;37131;42.694;23.350;2023-03-15T01:34:07;94461.56;;;4.69;48.75
51083;BME280;37131;42.694;23.350;2023-03-15T01:36:33;94458.75;;;4.77;49.48
51083;BME280;37131;42.694;23.350;2023-03-15T01:38:58;94450.19;;;4.77;49.69
51083;BME280;37131;42.694;23.350;2023-03-15T01:41:23;94458.06;;;4.56;49.68
51083;BME280;37131;42.694;23.350;2023-03-15T01:43:50;94448.78;;;4.49;51.06
51083;BME280;37131;42.694;23.350;2023-03-15T01:48:41;94438.53;;;4.22;51.30
51083;BME280;37131;42.694;23.350;2023-03-15T01:51:32;94437.22;;;4.06;51.93
51083;BME280;37131;42.694;23.350;2023-03-15T01:56:28;94433.44;;;3.95;52.75
51083;BME280;37131;42.694;23.350;2023-03-15T01:58:55;94429.28;;;4.08;53.27
51083;BME280;37131;42.694;23.350;2023-03-15T02:01:22;94425.88;;;4.07;52.96
51083;BME280;37131;42.694;23.350;2023-03-15T02:03:48;94435.59;;;4.12;52.66
51083;BME280;37131;42.694;23.350;2023-03-15T02:06:16;94428.41;;;4.20;51.73
51083;BME280;37131;42.694;23.350;2023-03-15T02:08:44;94424.69;;;4.16;52.59
51083;BME280;37131;42.694;23.350;2023-03-15T02:11:10;94419.34;;;4.04;51.81
51083;BME280;37131;42.694;23.350;2023-03-15T02:13:36;94417.00;;;3.96;51.54
51083;BME280;37131;42.694;23.350;2023-03-15T02:16:01;94404.31;;;3.88;53.11
51083;BME280;37131;42.694;23.350;2023-03-15T02:18:30;94405.53;;;3.85;52.86
51083;BME280;37131;42.694;23.350;2023-03-15T02:23:24;94408.31;;;3.77;52.25
51083;BME280;37131;42.694;23.350;2023-03-15T02:28:15;94402.00;;;3.66;52.19
51083;BME280;37131;42.694;23.350;2023-03-15T02:30:42;94398.03;;;3.64;52.87
51083;BME280;37131;42.694;23.350;2023-03-15T02:33:13;94398.81;;;3.64;52.41
51083;BME280;37131;42.694;23.350;2023-03-15T02:35:39;94391.06;;;3.64;52.95
51083;BME280;37131;42.694;23.350;2023-03-15T02:38:05;94398.41;;;3.67;53.20
51083;BME280;37131;42.694;23.350;2023-03-15T02:40:30;94400.97;;;3.74;54.19
51083;BME280;37131;42.694;23.350;2023-03-15T02:42:58;94396.41;;;3.76;53.55
51083;BME280;37131;42.694;23.350;2023-03-15T02:45:24;94398.78;;;3.78;54.12
51083;BME280;37131;42.694;23.350;2023-03-15T02:47:50;94408.91;;;3.73;54.58
51083;BME280;37131;42.694;23.350;2023-03-15T02:50:15;94397.81;;;3.72;55.40
51083;BME280;37131;42.694;23.350;2023-03-15T02:52:41;94394.06;;;3.68;54.31
51083;BME280;37131;42.694;23.350;2023-03-15T02:55:06;94383.13;;;3.73;54.21
51083;BME280;37131;42.694;23.350;2023-03-15T02:57:32;94385.72;;;3.73;53.26
51083;BME280;37131;42.694;23.350;2023-03-15T02:59:57;94381.34;;;3.73;52.77
51083;BME280;37131;42.694;23.350;2023-03-15T03:02:24;94380.53;;;3.79;52.95
51083;BME280;37131;42.694;23.350;2023-03-15T03:04:49;94372.19;;;3.84;54.15
51083;BME280;37131;42.694;23.350;2023-03-15T03:07:16;94367.78;;;4.04;51.36
51083;BME280;37131;42.694;23.350;2023-03-15T03:09:42;94375.53;;;3.98;50.68
51083;BME280;37131;42.694;23.350;2023-03-15T03:12:07;94378.09;;;3.98;51.43
51083;BME280;37131;42.694;23.350;2023-03-15T03:14:32;94365.63;;;3.95;51.91
51083;BME280;37131;42.694;23.350;2023-03-15T03:16:57;94362.47;;;3.86;52.55
51083;BME280;37131;42.694;23.350;2023-03-15T03:19:23;94357.94;;;3.81;51.49
51083;BME280;37131;42.694;23.350;2023-03-15T03:21:52;94357.97;;;3.61;51.72
51083;BME280;37131;42.694;23.350;2023-03-15T03:24:18;94356.00;;;3.57;51.74
51083;BME280;37131;42.694;23.350;2023-03-15T03:26:44;94361.94;;;3.57;51.80
51083;BME280;37131;42.694;23.350;2023-03-15T03:29:12;94360.91;;;3.72;51.83
51083;BME280;37131;42.694;23.350;2023-03-15T03:31:40;94357.50;;;3.84;51.34
51083;BME280;37131;42.694;23.350;2023-03-15T03:34:06;94350.22;;;3.68;52.95
51083;BME280;37131;42.694;23.350;2023-03-15T03:36:33;94351.03;;;3.62;52.53
51083;BME280;37131;42.694;23.350;2023-03-15T03:38:58;94343.72;;;3.52;54.07
51083;BME280;37131;42.694;23.350;2023-03-15T03:41:24;94341.72;;;3.54;53.34
51083;BME280;37131;42.694;23.350;2023-03-15T03:43:49;94335.38;;;3.57;53.83
51083;BME280;37131;42.694;23.350;2023-03-15T03:46:14;94337.75;;;3.58;53.73
51083;BME280;37131;42.694;23.350;2023-03-15T03:48:39;94334.00;;;3.61;52.72
51083;BME280;37131;42.694;23.350;2023-03-15T03:51:05;94340.25;;;3.85;51.89
51083;BME280;37131;42.694;23.350;2023-03-15T03:53:30;94336.94;;;3.71;52.17
51083;BME280;37131;42.694;23.350;2023-03-15T03:55:55;94336.72;;;3.73;52.21
51083;BME280;37131;42.694;23.350;2023-03-15T03:58:20;94334.16;;;3.73;51.87
51083;BME280;37131;42.694;23.350;2023-03-15T04:00:46;94329.16;;;3.78;52.74
51083;BME280;37131;42.694;23.350;2023-03-15T04:03:11;94328.94;;;3.86;51.78
51083;BME280;37131;42.694;23.350;2023-03-15T04:05:37;94334.25;;;3.98;52.09
51083;BME280;37131;42.694;23.350;2023-03-15T04:08:02;94318.13;;;4.09;52.46
51083;BME280;37131;42.694;23.350;2023-03-15T04:10:28;94317.03;;;4.30;51.45
51083;BME280;37131;42.694;23.350;2023-03-15T04:12:54;94312.91;;;4.22;51.77
51083;BME280;37131;42.694;23.350;2023-03-15T04:15:19;94316.97;;;4.05;51.96
51083;BME280;37131;42.694;23.350;2023-03-15T04:17:47;94312.84;;;3.97;53.52
51083;BME280;37131;42.694;23.350;2023-03-15T04:20:12;94309.00;;;4.07;53.16
51083;BME280;37131;42.694;23.350;2023-03-15T04:22:38;94313.03;;;3.96;53.86
51083;BME280;37131;42.694;23.350;2023-03-15T04:25:03;94307.84;;;4.02;53.13
51083;BME280;37131;42.694;23.350;2023-03-15T04:27:29;94314.59;;;4.03;52.36
51083;BME280;37131;42.694;23.350;2023-03-15T04:29:54;94314.78;;;4.02;54.02
51083;BME280;37131;42.694;23.350;2023-03-15T04:32:19;94321.34;;;4.04;53.97
51083;BME280;37131;42.694;23.350;2023-03-15T04:34:45;94313.19;;;4.01;54.20
51083;BME280;37131;42.694;23.350;2023-03-15T04:37:15;94308.78;;;3.63;53.93
51083;BME280;37131;42.694;23.350;2023-03-15T04:39:40;94283.47;;;3.53;54.34
51083;BME280;37131;42.694;23.350;2023-03-15T04:42:06;94299.28;;;3.63;54.39
51083;BME280;37131;42.694;23.350;2023-03-15T04:44:32;94312.75;;;3.65;55.53
51083;BME280;37131;42.694;23.350;2023-03-15T04:46:57;94309.97;;;3.74;55.61
51083;BME280;37131;42.694;23.350;2023-03-15T04:49:22;94314.34;;;3.60;55.66
51083;BME280;37131;42.694;23.350;2023-03-15T04:51:47;94319.91;;;3.63;56.31
51083;BME280;37131;42.694;23.350;2023-03-15T04:54:13;94319.25;;;3.81;55.77
51083;BME280;37131;42.694;23.350;2023-03-15T04:56:38;94315.31;;;3.72;55.46
51083;BME280;37131;42.694;23.350;2023-03-15T04:59:03;94316.06;;;3.79;56.42
51083;BME280;37131;42.694;23.350;2023-03-15T05:01:29;94308.38;;;3.66;57.24
51083;BME280;37131;42.694;23.350;2023-03-15T05:03:55;94304.03;;;3.66;56.05
51083;BME280;37131;42.694;23.350;2023-03-15T05:06:21;94301.03;;;3.69;55.85
51083;BME280;37131;42.694;23.350;2023-03-15T05:08:46;94313.91;;;3.76;54.92
51083;BME280;37131;42.694;23.350;2023-03-15T05:11:12;94306.72;;;3.85;55.17
51083;BME280;37131;42.694;23.350;2023-03-15T05:13:37;94310.69;;;3.88;54.85
51083;BME280;37131;42.694;23.350;2023-03-15T05:16:02;94312.66;;;3.92;56.22
51083;BME280;37131;42.694;23.350;2023-03-15T05:18:28;94306.25;;;4.01;54.21
51083;BME280;37131;42.694;23.350;2023-03-15T05:20:53;94311.94;;;4.17;54.44
51083;BME280;37131;42.694;23.350;2023-03-15T05:23:24;94309.28;;;4.30;53.45
51083;BME280;37131;42.694;23.350;2023-03-15T05:25:52;94304.34;;;4.22;54.57
51083;BME280;37131;42.694;23.350;2023-03-15T05:28:18;94303.34;;;4.30;53.70
51083;BME280;37131;42.694;23.350;2023-03-15T05:30:44;94312.03;;;4.35;53.91
51083;BME280;37131;42.694;23.350;2023-03-15T05:33:09;94296.50;;;4.42;53.30
51083;BME280;37131;42.694;23.350;2023-03-15T05:35:35;94297.94;;;4.63;52.16
51083;BME280;37131;42.694;23.350;2023-03-15T05:38:00;94292.78;;;4.63;53.73
51083;BME280;37131;42.694;23.350;2023-03-15T05:40:25;94290.59;;;4.67;51.87
51083;BME280;37131;42.694;23.350;2023-03-15T05:42:53;94294.16;;;4.66;50.83
51083;BME280;37131;42.694;23.350;2023-03-15T05:45:19;94301.00;;;4.53;50.63
51083;BME280;37131;42.694;23.350;2023-03-15T05:47:44;94303.72;;;4.33;50.32
51083;BME280;37131;42.694;23.350;2023-03-15T05:50:10;94297.44;;;4.22;51.32
51083;BME280;37131;42.694;23.350;2023-03-15T05:52:35;94299.44;;;4.46;50.50
51083;BME280;37131;42.694;23.350;2023-03-15T05:55:00;94291.38;;;4.67;50.01
51083;BME280;37131;42.694;23.350;2023-03-15T05:57:25;94294.78;;;4.61;49.92
51083;BME280;37131;42.694;23.350;2023-03-15T05:59:51;94290.16;;;4.45;51.54
51083;BME280;37131;42.694;23.350;2023-03-15T06:02:16;94302.59;;;4.16;51.50
51083;BME280;37131;42.694;23.350;2023-03-15T06:04:41;94300.78;;;4.23;52.93
51083;BME280;37131;42.694;23.350;2023-03-15T06:07:06;94304.69;;;4.32;51.45
51083;BME280;37131;42.694;23.350;2023-03-15T06:09:32;94299.25;;;4.47;50.93
51083;BME280;37131;42.694;23.350;2023-03-15T06:11:57;94298.13;;;4.68;50.58
51083;BME280;37131;42.694;23.350;2023-03-15T06:14:23;94290.28;;;4.50;50.99
51083;BME280;37131;42.694;23.350;2023-03-15T06:16:49;94285.66;;;4.59;51.22
51083;BME280;37131;42.694;23.350;2023-03-15T06:19:14;94277.78;;;4.53;51.58
51083;BME280;37131;42.694;23.350;2023-03-15T06:21:39;94284.41;;;4.68;52.56
51083;BME280;37131;42.694;23.350;2023-03-15T06:24:05;94297.69;;;4.97;51.72
51083;BME280;37131;42.694;23.350;2023-03-15T06:26:30;94300.81;;;5.24;50.32
51083;BME280;37131;42.694;23.350;2023-03-15T06:28:55;94297.22;;;5.25;50.66
51083;BME280;37131;42.694;23.350;2023-03-15T06:31:21;94298.94;;;5.13;52.07
51083;BME280;37131;42.694;23.350;2023-03-15T06:33:46;94296.50;;;4.74;51.54
51083;BME280;37131;42.694;23.350;2023-03-15T06:36:11;94282.63;;;4.94;52.66
51083;BME280;37131;42.694;23.350;2023-03-15T06:38:36;94275.75;;;5.06;52.05
51083;BME280;37131;42.694;23.350;2023-03-15T06:41:02;94277.97;;;5.21;51.33
51083;BME280;37131;42.694;23.350;2023-03-15T06:43:29;94300.25;;;5.59;52.23
51083;BME280;37131;42.694;23.350;2023-03-15T06:45:54;94294.38;;;5.52;51.35
51083;BME280;37131;42.694;23.350;2023-03-15T06:48:20;94279.88;;;5.32;51.97
51083;BME280;37131;42.694;23.350;2023-03-15T06:50:46;94274.78;;;5.62;50.93
51083;BME280;37131;42.694;23.350;2023-03-15T06:53:11;94270.94;;;5.84;51.12
51083;BME280;37131;42.694;23.350;2023-03-15T06:55:37;94276.75;;;5.97;51.62
51083;BME280;37131;42.694;23.350;2023-03-15T06:58:02;94288.41;;;6.07;49.84
51083;BME280;37131;42.694;23.350;2023-03-15T07:00:27;94281.97;;;6.09;50.60
51083;BME280;37131;42.694;23.350;2023-03-15T07:02:53;94276.66;;;5.86;51.38
51083;BME280;37131;42.694;23.350;2023-03-15T07:05:18;94266.78;;;6.01;51.46
51083;BME280;37131;42.694;23.350;2023-03-15T07:07:43;94263.59;;;5.99;51.73
51083;BME280;37131;42.694;23.350;2023-03-15T07:10:09;94268.47;;;6.07;51.17
51083;BME280;37131;42.694;23.350;2023-03-15T07:12:34;94266.88;;;6.37;49.56
51083;BME280;37131;42.694;23.350;2023-03-15T07:14:59;94268.75;;;6.18;50.81
51083;BME280;37131;42.694;23.350;2023-03-15T07:17:25;94262.03;;;5.98;50.99
51083;BME280;37131;42.694;23.350;2023-03-15T07:19:50;94257.41;;;6.30;50.53
51083;BME280;37131;42.694;23.350;2023-03-15T07:22:16;94250.03;;;6.58;50.84
51083;BME280;37131;42.694;23.350;2023-03-15T07:24:41;94261.25;;;6.40;49.88
51083;BME280;37131;42.694;23.350;2023-03-15T07:27:06;94269.34;;;6.31;49.77
51083;BME280;37131;42.694;23.350;2023-03-15T07:29:34;94256.47;;;6.79;49.11
51083;BME280;37131;42.694;23.350;2023-03-15T07:32:00;94258.50;;;6.89;48.29
51083;BME280;37131;42.694;23.350;2023-03-15T07:34:25;94254.31;;;7.11;48.44
51083;BME280;37131;42.694;23.350;2023-03-15T07:36:50;94260.75;;;7.44;47.89
51083;BME280;37131;42.694;23.350;2023-03-15T07:39:16;94246.78;;;7.10;47.84
51083;BME280;37131;42.694;23.350;2023-03-15T07:41:41;94250.94;;;7.34;47.57
51083;BME280;37131;42.694;23.350;2023-03-15T07:44:06;94256.44;;;7.26;47.08
51083;BME280;37131;42.694;23.350;2023-03-15T07:46:32;94259.84;;;7.38;47.14
51083;BME280;37131;42.694;23.350;2023-03-15T07:48:57;94253.75;;;7.73;46.63
51083;BME280;37131;42.694;23.350;2023-03-15T07:51:23;94251.66;;;7.99;46.13
51083;BME280;37131;42.694;23.350;2023-03-15T07:53:48;94253.72;;;7.97;46.37
51083;BME280;37131;42.694;23.350;2023-03-15T07:56:13;94250.97;;;8.04;47.07
51083;BME280;37131;42.694;23.350;2023-03-15T07:58:38;94241.84;;;7.72;46.97
51083;BME280;37131;42.694;23.350;2023-03-15T08:01:04;94245.88;;;8.09;46.47
51083;BME280;37131;42.694;23.350;2023-03-15T08:03:29;94239.06;;;8.37;45.97
51083;BME280;37131;42.694;23.350;2023-03-15T08:05:55;94233.97;;;8.13;45.24
51083;BME280;37131;42.694;23.350;2023-03-15T08:08:20;94226.59;;;8.51;45.56
51083;BME280;37131;42.694;23.350;2023-03-15T08:10:46;94228.44;;;8.21;46.21
51083;BME280;37131;42.694;23.350;2023-03-15T08:13:12;94222.28;;;8.56;45.51
51083;BME280;37131;42.694;23.350;2023-03-15T08:15:37;94217.84;;;8.74;46.47
51083;BME280;37131;42.694;23.350;2023-03-15T08:18:03;94204.44;;;8.99;45.66
51083;BME280;37131;42.694;23.350;2023-03-15T08:20:28;94203.63;;;8.99;45.22
51083;BME280;37131;42.694;23.350;2023-03-15T08:22:53;94195.97;;;8.70;44.49
51083;BME280;37131;42.694;23.350;2023-03-15T08:25:20;94199.06;;;9.06;45.65
51083;BME280;37131;42.694;23.350;2023-03-15T08:27:45;94201.75;;;9.55;43.25
51083;BME280;37131;42.694;23.350;2023-03-15T08:30:12;94203.06;;;8.74;43.78
51083;BME280;37131;42.694;23.350;2023-03-15T08:32:38;94205.63;;;8.91;43.96
51083;BME280;37131;42.694;23.350;2023-03-15T08:35:03;94201.00;;;8.76;44.38
51083;BME280;37131;42.694;23.350;2023-03-15T08:37:29;94196.59;;;8.60;44.33
51083;BME280;37131;42.694;23.350;2023-03-15T08:39:54;94207.28;;;8.98;43.37
51083;BME280;37131;42.694;23.350;2023-03-15T08:42:22;94211.28;;;8.88;43.72
51083;BME280;37131;42.694;23.350;2023-03-15T08:44:47;94205.41;;;8.76;44.04
51083;BME280;37131;42.694;23.350;2023-03-15T08:47:12;94202.94;;;9.25;43.85
51083;BME280;37131;42.694;23.350;2023-03-15T08:49:38;94195.63;;;9.44;43.57
51083;BME280;37131;42.694;23.350;2023-03-15T08:52:03;94195.34;;;9.41;42.69
51083;BME280;37131;42.694;23.350;2023-03-15T08:54:28;94202.53;;;9.34;43.16
51083;BME280;37131;42.694;23.350;2023-03-15T08:56:53;94204.59;;;9.32;43.55
51083;BME280;37131;42.694;23.350;2023-03-15T08:59:19;94196.00;;;9.53;43.04
51083;BME280;37131;42.694;23.350;2023-03-15T09:01:45;94196.19;;;9.69;43.71
51083;BME280;37131;42.694;23.350;2023-03-15T09:04:10;94202.81;;;9.15;43.38
51083;BME280;37131;42.694;23.350;2023-03-15T09:06:35;94203.16;;;9.41;43.58
51083;BME280;37131;42.694;23.350;2023-03-15T09:09:01;94198.22;;;9.66;42.74
51083;BME280;37131;42.694;23.350;2023-03-15T09:11:27;94196.34;;;9.84;42.40
51083;BME280;37131;42.694;23.350;2023-03-15T09:13:53;94199.56;;;9.69;42.19
51083;BME280;37131;42.694;23.350;2023-03-15T09:16:18;94206.84;;;9.94;42.67
51083;BME280;37131;42.694;23.350;2023-03-15T09:18:43;94193.78;;;10.16;41.97
51083;BME280;37131;42.694;23.350;2023-03-15T09:21:09;94195.44;;;10.00;42.03
51083;BME280;37131;42.694;23.350;2023-03-15T09:23:34;94194.19;;;10.03;42.01
51083;BME280;37131;42.694;23.350;2023-03-15T09:26:00;94200.91;;;10.26;42.58
51083;BME280;37131;42.694;23.350;2023-03-15T09:28:25;94199.97;;;10.10;42.77
51083;BME280;37131;42.694;23.350;2023-03-15T09:30:50;94201.28;;;10.35;42.64
51083;BME280;37131;42.694;23.350;2023-03-15T09:33:16;94198.91;;;10.06;41.47
51083;BME280;37131;42.694;23.350;2023-03-15T09:35:41;94192.84;;;10.28;41.70
51083;BME280;37131;42.694;23.350;2023-03-15T09:38:06;94180.25;;;10.47;41.90
51083;BME280;37131;42.694;23.350;2023-03-15T09:40:33;94181.84;;;10.85;41.14
51083;BME280;37131;42.694;23.350;2023-03-15T09:50:32;94161.50;;;10.87;41.53
51083;BME280;37131;42.694;23.350;2023-03-15T09:53:01;94164.19;;;11.03;40.70
51083;BME280;37131;42.694;23.350;2023-03-15T09:55:28;94167.25;;;10.52;40.56
51083;BME280;37131;42.694;23.350;2023-03-15T09:57:57;94160.09;;;10.69;40.97
51083;BME280;37131;42.694;23.350;2023-03-15T10:00:31;94162.81;;;10.20;41.48
51083;BME280;37131;42.694;23.350;2023-03-15T10:03:00;94165.09;;;10.11;42.07
51083;BME280;37131;42.694;23.350;2023-03-15T10:05:36;94161.78;;;10.21;41.85
51083;BME280;37131;42.694;23.350;2023-03-15T10:08:07;94167.78;;;10.22;41.97
51083;BME280;37131;42.694;23.350;2023-03-15T10:10:34;94176.88;;;10.19;42.17
51083;BME280;37131;42.694;23.350;2023-03-15T10:15:56;94175.97;;;9.76;42.72
51083;BME280;37131;42.694;23.350;2023-03-15T10:23:54;94164.22;;;10.33;41.37
51083;BME280;37131;42.694;23.350;2023-03-15T10:26:23;94155.25;;;10.88;41.67
51083;BME280;37131;42.694;23.350;2023-03-15T10:28:49;94158.47;;;11.06;40.23
51083;BME280;37131;42.694;23.350;2023-03-15T10:31:17;94159.75;;;11.03;40.55
51083;BME280;37131;42.694;23.350;2023-03-15T10:33:45;94144.72;;;10.73;41.01
51083;BME280;37131;42.694;23.350;2023-03-15T10:36:15;94147.22;;;10.25;41.26
51083;BME280;37131;42.694;23.350;2023-03-15T10:38:41;94150.28;;;10.44;41.20
51083;BME280;37131;42.694;23.350;2023-03-15T10:41:07;94159.19;;;10.53;41.96
51083;BME280;37131;42.694;23.350;2023-03-15T10:43:33;94160.59;;;10.66;40.89
51083;BME280;37131;42.694;23.350;2023-03-15T10:48:30;94158.16;;;9.95;42.02
51083;BME280;37131;42.694;23.350;2023-03-15T10:50:56;94165.72;;;9.96;42.01
51083;BME280;37131;42.694;23.350;2023-03-15T10:53:22;94149.09;;;10.30;41.77
51083;BME280;37131;42.694;23.350;2023-03-15T10:55:55;94148.56;;;10.60;42.77
51083;BME280;37131;42.694;23.350;2023-03-15T11:01:29;94159.91;;;10.16;41.65
51083;BME280;37131;42.694;23.350;2023-03-15T11:04:46;94146.91;;;10.49;41.67
51083;BME280;37131;42.694;23.350;2023-03-15T11:06:48;94143.59;;;10.59;42.71
51083;BME280;37131;42.694;23.350;2023-03-15T11:09:18;94145.00;;;10.77;40.23
51083;BME280;37131;42.694;23.350;2023-03-15T11:11:50;94145.19;;;10.65;39.85
51083;BME280;37131;42.694;23.350;2023-03-15T11:14:16;94138.97;;;10.66;40.50
51083;BME280;37131;42.694;23.350;2023-03-15T11:16:42;94131.75;;;10.83;41.83
51083;BME280;37131;42.694;23.350;2023-03-15T11:19:11;94134.59;;;10.82;40.17
51083;BME280;37131;42.694;23.350;2023-03-15T11:21:39;94127.19;;;11.06;39.75
51083;BME280;37131;42.694;23.350;2023-03-15T11:24:05;94137.09;;;11.14;41.82
51083;BME280;37131;42.694;23.350;2023-03-15T11:26:38;94129.31;;;11.24;40.45
51083;BME280;37131;42.694;23.350;2023-03-15T11:31:58;94142.28;;;11.04;40.03
51083;BME280;37131;42.694;23.350;2023-03-15T11:34:27;94140.00;;;11.18;39.81
51083;BME280;37131;42.694;23.350;2023-03-15T11:36:56;94130.63;;;11.22;41.06
51083;BME280;37131;42.694;23.350;2023-03-15T11:39:25;94132.81;;;10.87;40.66
51083;BME280;37131;42.694;23.350;2023-03-15T11:41:55;94115.81;;;10.80;40.77
51083;BME280;37131;42.694;23.350;2023-03-15T11:44:32;94123.13;;;10.40;41.38
51083;BME280;37131;42.694;23.350;2023-03-15T11:47:09;94118.13;;;10.76;40.92
51083;BME280;37131;42.694;23.350;2023-03-15T11:49:50;94128.50;;;10.61;41.10
51083;BME280;37131;42.694;23.350;2023-03-15T11:52:16;94118.53;;;11.00;40.96
51083;BME280;37131;42.694;23.350;2023-03-15T11:54:42;94107.44;;;11.41;40.92
51083;BME280;37131;42.694;23.350;2023-03-15T11:59:52;94112.97;;;11.50;38.97
51083;BME280;37131;42.694;23.350;2023-03-15T12:04:44;94118.75;;;11.67;39.16
51083;BME280;37131;42.694;23.350;2023-03-15T12:09:51;94115.47;;;11.19;39.91
51083;BME280;37131;42.694;23.350;2023-03-15T12:17:36;94093.84;;;11.29;41.47
51083;BME280;37131;42.694;23.350;2023-03-15T12:22:37;94083.34;;;11.08;40.64
51083;BME280;37131;42.694;23.350;2023-03-15T12:27:52;94093.34;;;11.27;40.09
51083;BME280;37131;42.694;23.350;2023-03-15T12:30:29;94095.44;;;11.35;42.34
51083;BME280;37131;42.694;23.350;2023-03-15T12:32:56;94091.03;;;11.35;42.51
51083;BME280;37131;42.694;23.350;2023-03-15T12:35:22;94077.19;;;11.45;42.85
51083;BME280;37131;42.694;23.350;2023-03-15T12:37:49;94081.03;;;11.17;44.17
51083;BME280;37131;42.694;23.350;2023-03-15T12:52:58;94076.28;;;11.03;44.53
51083;BME280;37131;42.694;23.350;2023-03-15T12:55:26;94078.66;;;11.05;45.54
51083;BME280;37131;42.694;23.350;2023-03-15T12:57:52;94079.06;;;10.86;45.92
51083;BME280;37131;42.694;23.350;2023-03-15T13:00:20;94085.59;;;10.84;46.06
51083;BME280;37131;42.694;23.350;2023-03-15T13:02:53;94081.47;;;10.88;46.39
51083;BME280;37131;42.694;23.350;2023-03-15T13:05:30;94082.75;;;10.85;46.14
51083;BME280;37131;42.694;23.350;2023-03-15T13:08:05;94076.25;;;10.88;46.26
51083;BME280;37131;42.694;23.350;2023-03-15T13:13:09;94072.53;;;10.74;46.59
51083;BME280;37131;42.694;23.350;2023-03-15T13:18:31;94063.03;;;11.15;45.02
51083;BME280;37131;42.694;23.350;2023-03-15T13:23:30;94065.59;;;11.00;44.09
51083;BME280;37131;42.694;23.350;2023-03-15T13:28:37;94076.31;;;11.09;44.10
51083;BME280;37131;42.694;23.350;2023-03-15T13:31:22;94082.69;;;11.38;42.91
51083;BME280;37131;42.694;23.350;2023-03-15T13:33:49;94079.84;;;11.61;42.35
51083;BME280;37131;42.694;23.350;2023-03-15T13:36:16;94079.81;;;11.40;42.94
51083;BME280;37131;42.694;23.350;2023-03-15T13:38:44;94082.38;;;11.35;43.88
51083;BME280;37131;42.694;23.350;2023-03-15T13:41:23;94089.47;;;11.45;43.59
51083;BME280;37131;42.694;23.350;2023-03-15T13:43:49;94086.38;;;11.58;42.85
51083;BME280;37131;42.694;23.350;2023-03-15T13:46:20;94080.91;;;11.70;44.45
51083;BME280;37131;42.694;23.350;2023-03-15T13:48:48;94075.44;;;11.82;43.10
51083;BME280;37131;42.694;23.350;2023-03-15T13:51:24;94073.06;;;11.85;43.70
51083;BME280;37131;42.694;23.350;2023-03-15T13:53:54;94078.00;;;11.51;42.68
51083;BME280;37131;42.694;23.350;2023-03-15T13:56:21;94081.38;;;11.51;43.20
51083;BME280;37131;42.694;23.350;2023-03-15T13:58:51;94079.03;;;11.50;42.79
51083;BME280;37131;42.694;23.350;2023-03-15T14:01:16;94088.22;;;11.83;43.65
51083;BME280;37131;42.694;23.350;2023-03-15T14:03:42;94086.66;;;11.77;44.18
51083;BME280;37131;42.694;23.350;2023-03-15T14:06:12;94089.28;;;11.77;41.22
51083;BME280;37131;42.694;23.350;2023-03-15T14:08:44;94079.34;;;11.64;41.75
51083;BME280;37131;42.694;23.350;2023-03-15T14:11:11;94077.53;;;11.80;41.14